createdAt,value
2018-04-30T00:00:06.500Z,10.50
2018-04-30T00:01:06.472Z,11.70
2018-04-30T00:02:06.491Z,13.50
2018-04-30T00:03:06.489Z,11.30
2018-04-30T00:04:06.471Z,11.90
2018-04-30T00:05:06.465Z,12.70
2018-04-30T00:06:06.467Z,11.30
2018-04-30T00:07:06.439Z,11.90
2018-04-30T00:08:06.438Z,10.90
2018-04-30T00:09:06.433Z,9.90
2018-04-30T00:10:06.435Z,11.40
2018-04-30T00:11:06.420Z,11.50
2018-04-30T00:12:06.435Z,10.70
2018-04-30T00:13:06.411Z,13.10
2018-04-30T00:14:06.402Z,10.90
2018-04-30T00:15:06.399Z,10.60
2018-04-30T00:16:06.397Z,11.00
2018-04-30T00:17:06.390Z,10.30
2018-04-30T00:18:06.382Z,11.30
2018-04-30T00:19:06.379Z,12.80
2018-04-30T00:20:06.386Z,12.50
2018-04-30T00:21:06.364Z,11.40
2018-04-30T00:22:06.358Z,13.90
2018-04-30T00:23:06.366Z,13.00
2018-04-30T00:24:06.356Z,12.10
2018-04-30T00:25:06.347Z,13.10
2018-04-30T00:26:06.350Z,14.40
2018-04-30T00:27:06.332Z,16.40
2018-04-30T00:28:06.345Z,16.30
2018-04-30T00:29:06.326Z,17.10
2018-04-30T00:30:06.398Z,19.00
2018-04-30T00:31:06.312Z,17.30
2018-04-30T00:32:06.345Z,19.20
2018-04-30T00:33:06.327Z,23.10
2018-04-30T00:34:06.295Z,22.60
2018-04-30T00:35:06.300Z,22.50
2018-04-30T00:36:06.286Z,22.70
2018-04-30T00:37:06.285Z,26.80
2018-04-30T00:38:06.302Z,23.80
2018-04-30T00:39:06.280Z,23.70
2018-04-30T00:40:06.276Z,29.60
2018-04-30T00:41:06.274Z,26.10
2018-04-30T00:42:06.257Z,28.50
2018-04-30T00:43:06.237Z,31.80
2018-04-30T00:44:06.235Z,32.70
2018-04-30T00:45:06.231Z,31.70
2018-04-30T00:46:06.224Z,34.30
2018-04-30T00:47:06.216Z,32.70
2018-04-30T00:48:06.216Z,36.90
2018-04-30T00:49:06.207Z,39.00
2018-04-30T00:50:06.201Z,37.10
2018-04-30T00:51:06.190Z,40.90
2018-04-30T00:52:06.187Z,38.90
2018-04-30T00:53:06.190Z,37.60
2018-04-30T00:54:06.174Z,41.80
2018-04-30T00:55:06.168Z,40.80
2018-04-30T00:56:06.173Z,40.50
2018-04-30T00:57:06.170Z,42.90
2018-04-30T00:58:06.154Z,45.10
2018-04-30T00:59:06.181Z,50.00
2018-04-30T01:00:06.138Z,68.50
2018-04-30T01:01:06.139Z,60.90
2018-04-30T01:02:06.125Z,63.00
2018-04-30T01:03:06.135Z,63.00
2018-04-30T01:04:06.682Z,73.50
2018-04-30T01:05:06.119Z,65.60
2018-04-30T01:06:06.694Z,61.60
2018-04-30T01:07:06.101Z,64.90
2018-04-30T01:08:06.106Z,63.40
2018-04-30T01:09:06.100Z,67.80
2018-04-30T01:10:06.091Z,67.20
2018-04-30T01:11:06.070Z,69.10
2018-04-30T01:12:06.063Z,68.60
2018-04-30T01:13:06.681Z,65.70
2018-04-30T01:14:06.072Z,67.20
2018-04-30T01:15:06.058Z,60.80
2018-04-30T01:16:07.673Z,68.60
2018-04-30T01:17:06.033Z,66.40
2018-04-30T01:18:06.034Z,61.60
2018-04-30T01:19:06.018Z,70.40
2018-04-30T01:20:06.014Z,63.10
2018-04-30T01:21:06.011Z,71.20
2018-04-30T01:22:05.999Z,63.70
2018-04-30T01:23:06.682Z,67.80
2018-04-30T01:24:05.989Z,76.30
2018-04-30T01:25:05.980Z,72.00
2018-04-30T01:26:05.976Z,66.70
2018-04-30T01:27:05.967Z,72.60
2018-04-30T01:28:05.964Z,69.00
2018-04-30T01:29:05.951Z,65.70
2018-04-30T01:30:05.953Z,66.90
2018-04-30T01:31:05.943Z,71.00
2018-04-30T01:32:05.949Z,68.10
2018-04-30T01:33:05.926Z,63.00
2018-04-30T01:34:05.916Z,64.40
2018-04-30T01:35:05.927Z,66.70
2018-04-30T01:36:05.942Z,63.40
2018-04-30T01:37:05.897Z,64.70
2018-04-30T01:38:05.922Z,61.40
2018-04-30T01:39:05.985Z,69.40
2018-04-30T01:40:05.880Z,67.30
2018-04-30T01:41:05.893Z,69.80
2018-04-30T01:42:05.865Z,73.00
2018-04-30T01:43:05.871Z,68.10
2018-04-30T01:44:05.851Z,63.30
2018-04-30T01:45:05.843Z,65.40
2018-04-30T01:46:05.837Z,71.00
2018-04-30T01:47:05.832Z,75.90
2018-04-30T01:48:05.830Z,72.60
2018-04-30T01:49:05.814Z,66.80
2018-04-30T01:50:05.811Z,68.90
2018-04-30T01:51:05.799Z,63.50
2018-04-30T01:52:05.819Z,69.90
2018-04-30T01:53:05.801Z,70.80
2018-04-30T01:54:05.823Z,72.70
2018-04-30T01:55:05.779Z,70.10
2018-04-30T01:56:05.770Z,67.10
2018-04-30T01:57:05.760Z,64.30
2018-04-30T01:58:05.754Z,68.40
2018-04-30T01:59:05.742Z,63.00
2018-04-30T02:00:05.741Z,69.50
2018-04-30T02:01:05.733Z,65.20
2018-04-30T02:02:05.725Z,71.10
2018-04-30T02:03:05.718Z,66.50
2018-04-30T02:04:05.708Z,70.00
2018-04-30T02:05:05.710Z,69.50
2018-04-30T02:06:05.696Z,68.80
2018-04-30T02:07:05.695Z,72.50
2018-04-30T02:08:05.682Z,67.40
2018-04-30T02:09:05.705Z,69.10
2018-04-30T02:10:05.670Z,68.40
2018-04-30T02:11:05.660Z,71.40
2018-04-30T02:12:05.655Z,71.40
2018-04-30T02:13:05.657Z,81.50
2018-04-30T02:14:05.644Z,73.80
2018-04-30T02:15:05.644Z,77.10
2018-04-30T02:16:05.628Z,70.80
2018-04-30T02:17:05.624Z,68.70
2018-04-30T02:18:05.607Z,73.70
2018-04-30T02:19:05.606Z,71.20
2018-04-30T02:20:05.591Z,73.80
2018-04-30T02:21:05.590Z,76.80
2018-04-30T02:22:05.580Z,73.90
2018-04-30T02:23:05.573Z,70.10
2018-04-30T02:24:05.580Z,76.70
2018-04-30T02:25:05.578Z,68.60
2018-04-30T02:26:05.560Z,71.60
2018-04-30T02:27:05.548Z,73.10
2018-04-30T02:28:05.542Z,70.60
2018-04-30T02:29:05.536Z,74.30
2018-04-30T02:30:05.526Z,74.50
2018-04-30T02:31:05.516Z,75.30
2018-04-30T02:32:05.512Z,76.20
2018-04-30T02:33:05.513Z,77.90
2018-04-30T02:34:05.505Z,77.50
2018-04-30T02:35:05.492Z,71.70
2018-04-30T02:36:05.488Z,81.90
2018-04-30T02:37:05.475Z,77.40
2018-04-30T02:38:05.482Z,78.40
2018-04-30T02:39:05.462Z,73.80
2018-04-30T02:40:05.458Z,73.10
2018-04-30T02:41:05.451Z,75.70
2018-04-30T02:42:05.440Z,77.30
2018-04-30T02:43:05.435Z,76.70
2018-04-30T02:44:05.424Z,76.00
2018-04-30T02:45:05.423Z,77.80
2018-04-30T02:46:05.412Z,71.80
2018-04-30T02:47:05.408Z,74.50
2018-04-30T02:48:05.398Z,68.40
2018-04-30T02:49:05.394Z,78.90
2018-04-30T02:50:05.384Z,77.80
2018-04-30T02:51:05.374Z,74.40
2018-04-30T02:52:05.375Z,80.50
2018-04-30T02:53:05.366Z,74.40
2018-04-30T02:54:05.356Z,71.00
2018-04-30T02:55:05.348Z,71.50
2018-04-30T02:56:05.345Z,68.80
2018-04-30T02:57:05.336Z,74.30
2018-04-30T02:58:05.328Z,74.30
2018-04-30T02:59:05.317Z,72.10
2018-04-30T03:00:05.309Z,76.40
2018-04-30T03:01:05.304Z,77.20
2018-04-30T03:02:05.301Z,79.00
2018-04-30T03:03:05.297Z,81.40
2018-04-30T03:04:05.282Z,74.40
2018-04-30T03:05:05.281Z,81.30
2018-04-30T03:06:05.268Z,85.70
2018-04-30T03:07:05.259Z,81.60
2018-04-30T03:08:05.257Z,83.40
2018-04-30T03:09:05.255Z,83.90
2018-04-30T03:10:05.241Z,70.30
2018-04-30T03:11:05.231Z,84.40
2018-04-30T03:12:05.228Z,78.90
2018-04-30T03:13:05.216Z,79.30
2018-04-30T03:14:05.234Z,75.60
2018-04-30T03:15:05.215Z,78.20
2018-04-30T03:16:05.212Z,79.90
2018-04-30T03:17:05.188Z,73.30
2018-04-30T03:18:05.188Z,75.90
2018-04-30T03:19:05.183Z,71.60
2018-04-30T03:20:05.168Z,81.90
2018-04-30T03:21:05.160Z,78.00
2018-04-30T03:22:05.158Z,79.50
2018-04-30T03:23:05.162Z,81.00
2018-04-30T03:24:05.142Z,78.40
2018-04-30T03:25:05.139Z,76.30
2018-04-30T03:26:05.124Z,73.90
2018-04-30T03:27:05.117Z,76.70
2018-04-30T03:28:05.110Z,77.40
2018-04-30T03:29:05.104Z,85.90
2018-04-30T03:30:05.100Z,72.20
2018-04-30T03:31:05.090Z,74.00
2018-04-30T03:32:05.083Z,86.90
2018-04-30T03:33:05.075Z,83.50
2018-04-30T03:34:05.072Z,78.70
2018-04-30T03:35:05.061Z,78.70
2018-04-30T03:36:05.054Z,79.90
2018-04-30T03:37:05.047Z,72.30
2018-04-30T03:38:05.042Z,80.50
2018-04-30T03:39:05.035Z,77.50
2018-04-30T03:40:05.033Z,75.10
2018-04-30T03:41:05.020Z,89.90
2018-04-30T03:42:05.021Z,80.90
2018-04-30T03:43:05.006Z,83.70
2018-04-30T03:44:04.999Z,76.20
2018-04-30T03:45:04.993Z,79.70
2018-04-30T03:46:04.986Z,78.00
2018-04-30T03:47:04.979Z,89.50
2018-04-30T03:48:04.971Z,86.30
2018-04-30T03:49:04.962Z,85.70
2018-04-30T03:50:04.953Z,92.40
2018-04-30T03:51:04.950Z,87.70
2018-04-30T03:52:04.943Z,92.70
2018-04-30T03:53:04.938Z,86.30
2018-04-30T03:54:04.938Z,85.50
2018-04-30T03:55:04.918Z,90.60
2018-04-30T03:56:04.913Z,86.20
2018-04-30T03:57:04.908Z,90.50
2018-04-30T03:58:04.895Z,82.80
2018-04-30T03:59:04.892Z,89.10
2018-04-30T04:00:04.886Z,90.40
2018-04-30T04:01:04.882Z,89.20
2018-04-30T04:02:04.867Z,85.10
2018-04-30T04:03:04.938Z,85.90
2018-04-30T04:04:04.854Z,88.70
2018-04-30T04:05:04.853Z,84.40
2018-04-30T04:06:04.840Z,94.50
2018-04-30T04:07:04.852Z,94.90
2018-04-30T04:08:04.825Z,96.00
2018-04-30T04:09:04.831Z,98.00
2018-04-30T04:10:04.814Z,95.50
2018-04-30T04:11:04.816Z,94.60
2018-04-30T04:12:04.817Z,101.10
2018-04-30T04:13:04.793Z,95.80
2018-04-30T04:14:04.783Z,90.20
2018-04-30T04:15:04.778Z,98.10
2018-04-30T04:16:04.781Z,90.30
2018-04-30T04:17:04.763Z,97.90
2018-04-30T04:18:04.753Z,93.90
2018-04-30T04:19:04.747Z,91.60
2018-04-30T04:20:04.744Z,98.60
2018-04-30T04:21:04.739Z,98.30
2018-04-30T04:22:04.729Z,96.10
2018-04-30T04:23:04.735Z,97.80
2018-04-30T04:24:04.711Z,102.30
2018-04-30T04:25:04.711Z,106.80
2018-04-30T04:26:04.694Z,100.80
2018-04-30T04:27:04.691Z,99.30
2018-04-30T04:28:04.685Z,96.90
2018-04-30T04:29:04.674Z,105.40
2018-04-30T04:30:04.670Z,102.40
2018-04-30T04:31:04.660Z,105.90
2018-04-30T04:32:04.655Z,104.80
2018-04-30T04:33:04.649Z,108.50
2018-04-30T04:34:04.642Z,109.80
2018-04-30T04:35:04.645Z,109.10
2018-04-30T04:36:04.621Z,103.80
2018-04-30T04:37:04.639Z,111.50
2018-04-30T04:38:04.617Z,110.00
2018-04-30T04:39:04.606Z,106.50
2018-04-30T04:40:04.600Z,114.10
2018-04-30T04:41:04.595Z,111.40
2018-04-30T04:42:04.580Z,112.70
2018-04-30T04:43:04.576Z,112.20
2018-04-30T04:44:04.564Z,106.60
2018-04-30T04:45:04.561Z,104.30
2018-04-30T04:46:04.553Z,108.30
2018-04-30T04:47:04.544Z,108.70
2018-04-30T04:48:04.544Z,105.00
2018-04-30T04:49:04.535Z,107.20
2018-04-30T04:50:04.522Z,106.20
2018-04-30T04:51:04.542Z,113.20
2018-04-30T04:52:04.508Z,109.70
2018-04-30T04:53:04.503Z,101.40
2018-04-30T04:54:04.499Z,101.00
2018-04-30T04:55:04.488Z,97.30
2018-04-30T04:56:04.481Z,94.50
2018-04-30T04:57:04.474Z,99.40
2018-04-30T04:58:04.462Z,92.90
2018-04-30T04:59:04.455Z,95.30
2018-04-30T05:00:04.454Z,102.10
2018-04-30T05:01:04.445Z,101.50
2018-04-30T05:02:04.438Z,98.60
2018-04-30T05:03:04.433Z,92.40
2018-04-30T05:04:04.421Z,99.50
2018-04-30T05:05:04.413Z,102.10
2018-04-30T05:06:04.409Z,96.70
2018-04-30T05:07:04.405Z,99.20
2018-04-30T05:08:04.396Z,105.60
2018-04-30T05:09:04.386Z,106.20
2018-04-30T05:10:04.381Z,112.30
2018-04-30T05:11:04.379Z,102.60
2018-04-30T05:12:04.363Z,107.00
2018-04-30T05:13:05.011Z,104.60
2018-04-30T05:14:04.348Z,100.80
2018-04-30T05:15:04.342Z,102.30
2018-04-30T05:16:04.333Z,102.70
2018-04-30T05:17:04.328Z,109.50
2018-04-30T05:18:04.324Z,107.10
2018-04-30T05:19:04.314Z,101.90
2018-04-30T05:20:04.311Z,103.40
2018-04-30T05:21:04.299Z,106.40
2018-04-30T05:22:04.290Z,108.90
2018-04-30T05:23:04.290Z,107.70
2018-04-30T05:24:04.283Z,113.40
2018-04-30T05:25:04.273Z,104.20
2018-04-30T05:26:04.263Z,120.80
2018-04-30T05:27:04.264Z,119.20
2018-04-30T05:28:04.255Z,119.20
2018-04-30T05:29:04.245Z,109.30
2018-04-30T05:30:04.256Z,112.00
2018-04-30T05:31:04.232Z,116.50
2018-04-30T05:32:04.227Z,111.60
2018-04-30T05:33:04.217Z,114.50
2018-04-30T05:34:04.211Z,116.40
2018-04-30T05:35:04.209Z,110.10
2018-04-30T05:36:04.193Z,126.10
2018-04-30T05:37:04.189Z,116.60
2018-04-30T05:38:04.176Z,118.60
2018-04-30T05:39:04.194Z,112.40
2018-04-30T05:40:04.188Z,110.30
2018-04-30T05:41:04.170Z,106.50
2018-04-30T05:42:04.167Z,109.50
2018-04-30T05:43:04.156Z,97.90
2018-04-30T05:44:04.147Z,101.50
2018-04-30T05:45:04.134Z,99.60
2018-04-30T05:46:04.134Z,104.80
2018-04-30T05:47:04.118Z,103.70
2018-04-30T05:48:05.840Z,100.30
2018-04-30T05:49:04.109Z,106.30
2018-04-30T05:50:04.128Z,101.90
2018-04-30T05:51:04.090Z,99.00
2018-04-30T05:52:04.082Z,102.10
2018-04-30T05:53:04.079Z,108.90
2018-04-30T05:54:04.069Z,102.60
2018-04-30T05:55:04.059Z,104.90
2018-04-30T05:56:04.054Z,96.70
2018-04-30T05:57:04.048Z,101.80
2018-04-30T05:58:04.047Z,101.70
2018-04-30T05:59:04.039Z,106.60
2018-04-30T06:00:04.028Z,102.70
2018-04-30T06:01:04.021Z,111.40
2018-04-30T06:02:04.013Z,104.60
2018-04-30T06:03:04.011Z,105.70
2018-04-30T06:04:03.999Z,109.10
2018-04-30T06:05:04.000Z,108.60
2018-04-30T06:06:03.993Z,109.20
2018-04-30T06:07:03.984Z,106.70
2018-04-30T06:08:03.971Z,112.50
2018-04-30T06:09:03.964Z,112.20
2018-04-30T06:10:03.960Z,115.30
2018-04-30T06:11:03.960Z,113.00
2018-04-30T06:12:03.953Z,115.70
2018-04-30T06:13:03.943Z,125.60
2018-04-30T06:14:03.933Z,115.20
2018-04-30T06:15:03.921Z,121.80
2018-04-30T06:16:03.918Z,126.10
2018-04-30T06:17:03.911Z,125.80
2018-04-30T06:18:03.908Z,123.00
2018-04-30T06:19:03.895Z,123.20
2018-04-30T06:20:03.893Z,120.60
2018-04-30T06:21:03.883Z,117.90
2018-04-30T06:22:03.875Z,117.60
2018-04-30T06:23:03.873Z,116.70
2018-04-30T06:24:03.864Z,122.10
2018-04-30T06:25:03.854Z,123.60
2018-04-30T06:26:03.846Z,117.20
2018-04-30T06:27:03.844Z,125.70
2018-04-30T06:28:03.834Z,119.80
2018-04-30T06:29:03.828Z,111.30
2018-04-30T06:30:03.822Z,115.10
2018-04-30T06:31:03.815Z,115.10
2018-04-30T06:32:03.805Z,110.20
2018-04-30T06:33:03.812Z,110.10
2018-04-30T06:34:03.797Z,118.20
2018-04-30T06:35:03.785Z,125.60
2018-04-30T06:36:03.779Z,117.20
2018-04-30T06:37:03.770Z,106.90
2018-04-30T06:38:03.769Z,111.10
2018-04-30T06:39:03.778Z,108.20
2018-04-30T06:40:03.753Z,107.30
2018-04-30T06:41:03.757Z,106.50
2018-04-30T06:42:03.743Z,108.90
2018-04-30T06:43:03.741Z,99.20
2018-04-30T06:44:03.721Z,94.00
2018-04-30T06:45:03.716Z,90.40
2018-04-30T06:46:03.712Z,92.30
2018-04-30T06:47:03.704Z,87.60
2018-04-30T06:48:03.698Z,87.40
2018-04-30T06:49:03.687Z,78.70
2018-04-30T06:50:03.684Z,77.90
2018-04-30T06:51:03.678Z,76.10
2018-04-30T06:52:03.667Z,77.00
2018-04-30T06:53:03.664Z,75.30
2018-04-30T06:54:03.653Z,77.60
2018-04-30T06:55:03.647Z,66.40
2018-04-30T06:56:03.725Z,66.10
2018-04-30T06:57:03.632Z,61.90
2018-04-30T06:58:03.634Z,67.50
2018-04-30T06:59:03.619Z,62.40
2018-04-30T07:00:03.613Z,63.90
2018-04-30T07:01:03.613Z,63.60
2018-04-30T07:02:03.603Z,63.70
2018-04-30T07:03:03.595Z,63.60
2018-04-30T07:04:03.584Z,59.50
2018-04-30T07:05:03.579Z,60.80
2018-04-30T07:06:03.573Z,58.10
2018-04-30T07:07:03.564Z,50.60
2018-04-30T07:08:03.565Z,49.20
2018-04-30T07:09:03.587Z,51.80
2018-04-30T07:10:03.546Z,49.40
2018-04-30T07:11:03.539Z,48.00
2018-04-30T07:12:03.543Z,45.00
2018-04-30T07:13:03.521Z,41.10
2018-04-30T07:14:03.516Z,42.20
2018-04-30T07:15:03.510Z,38.20
2018-04-30T07:16:03.502Z,33.40
2018-04-30T07:17:03.498Z,31.90
2018-04-30T07:18:03.489Z,28.70
2018-04-30T07:19:03.486Z,27.00
2018-04-30T07:20:03.489Z,27.60
2018-04-30T07:21:03.469Z,29.30
2018-04-30T07:22:03.469Z,27.50
2018-04-30T07:23:03.454Z,25.90
2018-04-30T07:24:03.456Z,25.90
2018-04-30T07:25:03.446Z,25.70
2018-04-30T07:26:03.436Z,25.30
2018-04-30T07:27:03.426Z,24.70
2018-04-30T07:28:03.425Z,22.00
2018-04-30T07:29:03.417Z,20.50
2018-04-30T07:30:03.411Z,19.20
2018-04-30T07:31:03.414Z,19.70
2018-04-30T07:32:03.397Z,17.90
2018-04-30T07:33:03.398Z,15.90
2018-04-30T07:34:03.383Z,17.30
2018-04-30T07:35:03.377Z,16.50
2018-04-30T07:36:03.370Z,16.20
2018-04-30T07:37:03.368Z,16.40
2018-04-30T07:38:03.362Z,15.20
2018-04-30T07:39:03.418Z,14.90
2018-04-30T07:40:03.349Z,15.20
2018-04-30T07:41:03.342Z,13.90
2018-04-30T07:42:03.338Z,12.80
2018-04-30T07:43:03.329Z,10.20
2018-04-30T07:44:03.326Z,12.80
2018-04-30T07:45:03.317Z,11.60
2018-04-30T07:46:03.314Z,11.30
2018-04-30T07:47:03.309Z,10.70
2018-04-30T07:48:03.301Z,9.90
2018-04-30T07:49:03.299Z,10.60
2018-04-30T07:50:03.307Z,8.00
2018-04-30T07:51:03.283Z,8.70
2018-04-30T07:52:03.275Z,8.70
2018-04-30T07:53:03.269Z,8.20
2018-04-30T07:54:03.263Z,8.70
2018-04-30T07:55:03.256Z,8.00
2018-04-30T07:56:03.248Z,8.00
2018-04-30T07:57:03.242Z,7.70
2018-04-30T07:58:03.238Z,7.70
2018-04-30T07:59:03.234Z,7.40
2018-04-30T08:00:03.225Z,6.60
2018-04-30T08:01:03.220Z,6.30
2018-04-30T08:02:03.216Z,6.40
2018-04-30T08:03:03.290Z,6.10
2018-04-30T08:04:03.198Z,6.40
2018-04-30T08:05:03.194Z,4.50
2018-04-30T08:06:03.185Z,4.90
2018-04-30T08:07:03.181Z,5.20
2018-04-30T08:08:03.175Z,5.10
2018-04-30T08:09:03.211Z,4.80
2018-04-30T08:10:03.163Z,4.50
2018-04-30T08:11:03.153Z,4.70
2018-04-30T08:12:03.153Z,3.90
2018-04-30T08:13:03.153Z,4.30
2018-04-30T08:14:03.134Z,4.30
2018-04-30T08:15:03.133Z,3.90
2018-04-30T08:16:03.121Z,4.30
2018-04-30T08:17:03.120Z,4.00
2018-04-30T08:18:03.107Z,3.60
2018-04-30T08:19:03.101Z,4.50
2018-04-30T08:20:03.100Z,3.80
2018-04-30T08:21:03.093Z,3.90
2018-04-30T08:22:03.094Z,3.90
2018-04-30T08:23:03.078Z,4.00
2018-04-30T08:24:03.070Z,4.10
2018-04-30T08:25:03.061Z,5.10
2018-04-30T08:26:03.059Z,4.90
2018-04-30T08:27:03.053Z,5.30
2018-04-30T08:28:03.045Z,5.40
2018-04-30T08:29:03.037Z,4.80
2018-04-30T08:30:03.032Z,5.10
2018-04-30T08:31:03.022Z,4.70
2018-04-30T08:32:03.020Z,5.20
2018-04-30T08:33:03.010Z,5.90
2018-04-30T08:34:03.007Z,5.10
2018-04-30T08:35:03.000Z,6.20
2018-04-30T08:36:02.994Z,5.10
2018-04-30T08:37:02.988Z,5.30
2018-04-30T08:38:03.060Z,6.00
2018-04-30T08:39:02.968Z,5.80
2018-04-30T08:40:02.972Z,5.00
2018-04-30T08:41:02.965Z,5.70
2018-04-30T08:42:02.956Z,5.90
2018-04-30T08:43:02.946Z,5.80
2018-04-30T08:44:02.931Z,5.50
2018-04-30T08:45:02.998Z,5.30
2018-04-30T08:46:02.921Z,5.40
2018-04-30T08:47:02.916Z,6.40
2018-04-30T08:48:02.921Z,15.50
2018-04-30T08:49:02.900Z,7.30
2018-04-30T08:50:02.894Z,6.60
2018-04-30T08:51:02.884Z,6.70
2018-04-30T08:52:02.885Z,7.50
2018-04-30T08:53:02.873Z,7.50
2018-04-30T08:54:02.870Z,6.50
2018-04-30T08:55:02.858Z,6.10
2018-04-30T08:56:02.854Z,4.20
2018-04-30T08:57:02.843Z,3.60
2018-04-30T08:58:02.836Z,3.80
2018-04-30T08:59:02.831Z,3.30
2018-04-30T09:00:02.822Z,2.80
2018-04-30T09:01:02.816Z,2.40
2018-04-30T09:02:02.811Z,3.00
2018-04-30T09:03:02.803Z,3.60
2018-04-30T09:04:02.792Z,2.40
2018-04-30T09:05:02.795Z,2.30
2018-04-30T09:06:02.787Z,1.80
2018-04-30T09:07:02.782Z,2.40
2018-04-30T09:08:02.764Z,2.30
2018-04-30T09:09:02.755Z,1.90
2018-04-30T09:10:02.752Z,1.60
2018-04-30T09:11:02.745Z,2.80
2018-04-30T09:12:02.757Z,1.70
2018-04-30T09:13:02.743Z,1.80
2018-04-30T09:14:02.729Z,2.20
2018-04-30T09:15:02.722Z,2.50
2018-04-30T09:16:02.709Z,2.20
2018-04-30T09:17:02.700Z,2.20
2018-04-30T09:18:02.695Z,2.60
2018-04-30T09:19:02.686Z,2.40
2018-04-30T09:20:02.685Z,2.40
2018-04-30T09:21:02.678Z,1.90
2018-04-30T09:22:02.667Z,2.00
2018-04-30T09:23:02.657Z,6.10
2018-04-30T09:24:02.648Z,2.10
2018-04-30T09:25:02.643Z,2.20
2018-04-30T09:26:02.638Z,1.80
2018-04-30T09:27:02.633Z,2.90
2018-04-30T09:28:02.665Z,3.40
2018-04-30T09:29:02.627Z,2.40
2018-04-30T09:30:02.604Z,2.70
2018-04-30T09:31:02.599Z,2.20
2018-04-30T09:32:02.596Z,2.40
2018-04-30T09:33:02.592Z,2.80
2018-04-30T09:34:02.586Z,2.50
2018-04-30T09:35:02.610Z,2.20
2018-04-30T09:36:02.568Z,2.10
2018-04-30T09:37:02.560Z,3.20
2018-04-30T09:38:02.562Z,2.00
2018-04-30T09:39:03.332Z,2.50
2018-04-30T09:40:02.542Z,2.40
2018-04-30T09:41:02.542Z,2.30
2018-04-30T09:42:02.525Z,2.30
2018-04-30T09:43:02.516Z,2.70
2018-04-30T09:44:02.515Z,2.60
2018-04-30T09:45:02.506Z,2.50
2018-04-30T09:46:02.491Z,2.50
2018-04-30T09:47:02.490Z,2.80
2018-04-30T09:48:02.484Z,2.60
2018-04-30T09:49:02.474Z,3.10
2018-04-30T09:50:02.467Z,2.90
2018-04-30T09:51:02.455Z,3.00
2018-04-30T09:52:02.488Z,2.90
2018-04-30T09:53:02.443Z,3.00
2018-04-30T09:54:02.440Z,2.80
2018-04-30T09:55:02.428Z,4.30
2018-04-30T09:56:02.425Z,4.20
2018-04-30T09:57:02.415Z,3.20
2018-04-30T09:58:02.414Z,2.90
2018-04-30T09:59:02.401Z,3.40
2018-04-30T10:00:02.393Z,3.60
2018-04-30T10:01:02.388Z,3.70
2018-04-30T10:02:02.388Z,3.20
2018-04-30T10:03:02.380Z,3.30
2018-04-30T10:04:02.363Z,5.00
2018-04-30T10:05:02.358Z,2.70
2018-04-30T10:06:02.347Z,2.80
2018-04-30T10:07:02.345Z,3.70
2018-04-30T10:08:02.337Z,3.20
2018-04-30T10:09:02.337Z,3.50
2018-04-30T10:10:02.333Z,2.80
2018-04-30T10:11:02.306Z,3.20
2018-04-30T10:12:02.312Z,3.00
2018-04-30T10:13:02.299Z,3.00
2018-04-30T10:14:02.297Z,2.70
2018-04-30T10:15:02.284Z,3.40
2018-04-30T10:16:02.277Z,3.40
2018-04-30T10:17:02.269Z,3.10
2018-04-30T10:18:02.266Z,3.50
2018-04-30T10:19:02.257Z,4.00
2018-04-30T10:20:02.251Z,3.40
2018-04-30T10:21:02.241Z,4.70
2018-04-30T10:22:02.236Z,3.70
2018-04-30T10:23:02.229Z,3.30
2018-04-30T10:24:02.220Z,3.60
2018-04-30T10:25:02.212Z,3.50
2018-04-30T10:26:02.220Z,3.10
2018-04-30T10:27:02.200Z,4.10
2018-04-30T10:28:02.192Z,3.40
2018-04-30T10:29:02.187Z,3.30
2018-04-30T10:30:02.177Z,4.30
2018-04-30T10:31:02.167Z,3.50
2018-04-30T10:32:02.165Z,5.40
2018-04-30T10:33:02.158Z,3.20
2018-04-30T10:34:02.145Z,3.10
2018-04-30T10:35:02.136Z,3.50
2018-04-30T10:36:02.129Z,3.30
2018-04-30T10:37:02.129Z,4.00
2018-04-30T10:38:02.165Z,3.20
2018-04-30T10:39:02.109Z,3.30
2018-04-30T10:40:02.104Z,2.70
2018-04-30T10:41:02.094Z,3.10
2018-04-30T10:42:02.091Z,3.40
2018-04-30T10:43:02.084Z,3.10
2018-04-30T10:44:02.071Z,3.30
2018-04-30T10:45:02.069Z,3.00
2018-04-30T10:46:02.136Z,3.70
2018-04-30T10:47:02.055Z,4.00
2018-04-30T10:48:02.058Z,3.10
2018-04-30T10:49:02.038Z,3.00
2018-04-30T10:50:02.036Z,2.10
2018-04-30T10:51:02.025Z,2.30
2018-04-30T10:52:02.021Z,3.10
2018-04-30T10:53:02.023Z,2.50
2018-04-30T10:54:02.009Z,2.50
2018-04-30T10:55:02.029Z,2.30
2018-04-30T10:56:02.009Z,3.10
2018-04-30T10:57:01.993Z,2.20
2018-04-30T10:58:01.980Z,2.40
2018-04-30T10:59:01.972Z,2.30
2018-04-30T11:00:01.977Z,2.20
2018-04-30T11:01:01.968Z,1.90
2018-04-30T11:02:01.963Z,3.00
2018-04-30T11:03:01.953Z,2.00
2018-04-30T11:04:01.954Z,3.40
2018-04-30T11:05:01.936Z,2.00
2018-04-30T11:06:01.937Z,2.20
2018-04-30T11:07:01.924Z,1.70
2018-04-30T11:08:01.919Z,1.60
2018-04-30T11:09:01.912Z,2.60
2018-04-30T11:10:01.907Z,1.60
2018-04-30T11:11:01.906Z,3.60
2018-04-30T11:12:01.909Z,1.90
2018-04-30T11:13:01.897Z,1.80
2018-04-30T11:14:02.849Z,1.50
2018-04-30T11:15:01.873Z,1.50
2018-04-30T11:16:01.867Z,16.50
2018-04-30T11:17:01.865Z,2.10
2018-04-30T11:18:01.854Z,1.90
2018-04-30T11:19:01.859Z,2.20
2018-04-30T11:20:02.352Z,1.50
2018-04-30T11:21:01.842Z,2.20
2018-04-30T11:22:01.839Z,2.10
2018-04-30T11:23:01.836Z,1.30
2018-04-30T11:24:01.832Z,1.30
2018-04-30T11:25:01.834Z,1.40
2018-04-30T11:26:01.832Z,1.30
2018-04-30T11:27:01.825Z,0.80
2018-04-30T11:28:01.821Z,2.60
2018-04-30T11:29:01.816Z,2.10
2018-04-30T11:30:01.821Z,1.20
2018-04-30T11:31:01.809Z,3.90
2018-04-30T11:32:01.810Z,1.20
2018-04-30T11:33:01.807Z,1.30
2018-04-30T11:34:01.859Z,1.10
2018-04-30T11:35:01.798Z,1.40
2018-04-30T11:36:01.800Z,1.50
2018-04-30T11:37:01.801Z,3.00
2018-04-30T11:38:01.797Z,1.30
2018-04-30T11:39:01.799Z,1.50
2018-04-30T11:40:01.806Z,1.30
2018-04-30T11:41:01.796Z,1.30
2018-04-30T11:42:01.800Z,1.20
2018-04-30T11:43:01.800Z,1.10
2018-04-30T11:44:01.792Z,1.50
2018-04-30T11:45:01.794Z,1.30
2018-04-30T11:46:01.789Z,1.60
2018-04-30T11:47:01.802Z,1.60
2018-04-30T11:48:01.785Z,1.30
2018-04-30T11:49:01.783Z,1.30
2018-04-30T11:50:01.780Z,1.90
2018-04-30T11:51:01.788Z,1.50
2018-04-30T11:52:01.783Z,2.60
2018-04-30T11:53:01.776Z,1.40
2018-04-30T11:54:01.774Z,1.50
2018-04-30T11:55:01.765Z,1.30
2018-04-30T11:56:01.762Z,1.40
2018-04-30T11:57:01.756Z,2.10
2018-04-30T11:58:01.758Z,2.10
2018-04-30T11:59:01.766Z,1.40
2018-04-30T12:00:01.753Z,2.60
2018-04-30T12:01:01.746Z,1.80
2018-04-30T12:02:01.740Z,1.30
2018-04-30T12:03:01.743Z,1.30
2018-04-30T12:04:01.734Z,1.60
2018-04-30T12:05:01.730Z,2.00
2018-04-30T12:06:01.722Z,1.30
2018-04-30T12:07:01.721Z,1.50
2018-04-30T12:08:01.721Z,1.30
2018-04-30T12:09:01.709Z,2.20
2018-04-30T12:10:01.705Z,1.80
2018-04-30T12:11:01.763Z,2.80
2018-04-30T12:12:01.699Z,1.60
2018-04-30T12:13:01.692Z,2.70
2018-04-30T12:14:01.691Z,2.30
2018-04-30T12:15:01.686Z,1.60
2018-04-30T12:16:01.680Z,1.10
2018-04-30T12:17:01.678Z,1.20
2018-04-30T12:18:01.668Z,1.60
2018-04-30T12:19:01.670Z,2.70
2018-04-30T12:20:01.665Z,2.10
2018-04-30T12:21:01.659Z,4.30
2018-04-30T12:22:01.681Z,1.50
2018-04-30T12:23:01.645Z,1.00
2018-04-30T12:24:01.642Z,1.00
2018-04-30T12:25:01.638Z,3.20
2018-04-30T12:26:01.633Z,2.40
2018-04-30T12:27:01.631Z,2.50
2018-04-30T12:28:01.623Z,1.30
2018-04-30T12:29:01.616Z,1.80
2018-04-30T12:30:01.615Z,2.30
2018-04-30T12:31:01.607Z,1.50
2018-04-30T12:32:01.598Z,1.30
2018-04-30T12:33:01.593Z,2.10
2018-04-30T12:34:01.592Z,1.70
2018-04-30T12:35:01.588Z,1.40
2018-04-30T12:36:01.625Z,1.10
2018-04-30T12:37:01.576Z,1.20
2018-04-30T12:38:01.571Z,1.40
2018-04-30T12:39:01.567Z,2.00
2018-04-30T12:40:01.562Z,1.30
2018-04-30T12:41:01.555Z,2.30
2018-04-30T12:42:01.545Z,1.30
2018-04-30T12:43:01.544Z,1.60
2018-04-30T12:44:01.538Z,1.70
2018-04-30T12:45:01.538Z,1.00
2018-04-30T12:46:01.531Z,1.20
2018-04-30T12:47:01.531Z,2.20
2018-04-30T12:48:01.519Z,1.00
2018-04-30T12:49:01.517Z,2.40
2018-04-30T12:50:01.505Z,1.30
2018-04-30T12:51:01.502Z,0.70
2018-04-30T12:52:01.524Z,0.90
2018-04-30T12:53:01.500Z,2.10
2018-04-30T12:54:01.491Z,1.40
2018-04-30T12:55:01.484Z,1.50
2018-04-30T12:56:01.511Z,1.90
2018-04-30T12:57:02.403Z,1.00
2018-04-30T12:58:01.470Z,1.80